Time;durP1;ratioP1;P1;durP2;ratioP2;P2;SDS_P1;SDS_P2;PMS_P1;PMS_P2;Temp;Humidity;BMP_temperature;BMP_pressure;BME280_temperature;BME280_humidity;BME280_pressure;Samples;Min_cycle;Max_cycle;Signal;HPM_P1;HPM_P2
2023/05/22 00:01:05;;;;;;;3.45;3.25;;;16.20;99.90;;;;;;5028186;28;20643;-70
2023/05/22 00:03:32;;;;;;;3.35;3.15;;;16.20;99.90;;;;;;5028451;28;20207;-72
2023/05/22 00:06:00;;;;;;;3.50;3.20;;;16.20;99.90;;;;;;5028433;28;20219;-70
2023/05/22 00:08:28;;;;;;;3.28;3.08;;;16.20;99.90;;;;;;5030825;28;20200;-71
2023/05/22 00:10:55;;;;;;;3.80;3.50;;;16.20;99.90;;;;;;5028397;28;20279;-71
2023/05/22 00:13:22;;;;;;;3.85;3.55;;;16.20;99.90;;;;;;5032989;28;20259;-72
2023/05/22 00:15:49;;;;;;;4.20;3.90;;;16.20;99.90;;;;;;5029042;28;20258;-72
2023/05/22 00:18:16;;;;;;;4.25;3.85;;;16.00;99.90;;;;;;5030868;28;20239;-71
2023/05/22 00:20:45;;;;;;;3.80;3.50;;;15.90;99.90;;;;;;5028831;28;20203;-71
2023/05/22 00:23:13;;;;;;;4.30;4.00;;;15.90;99.90;;;;;;5032353;28;20230;-71
2023/05/22 00:25:41;;;;;;;3.90;3.60;;;15.90;99.90;;;;;;5030201;28;20262;-71
2023/05/22 00:28:08;;;;;;;5.00;4.60;;;15.70;99.90;;;;;;5033219;28;20205;-71
2023/05/22 00:30:35;;;;;;;5.53;5.13;;;15.60;99.90;;;;;;5023749;28;20676;-71
2023/05/22 00:33:02;;;;;;;5.93;5.32;;;15.40;99.90;;;;;;5034096;28;20549;-71
2023/05/22 00:35:29;;;;;;;5.57;5.07;;;15.30;99.90;;;;;;5025716;28;20220;-71
2023/05/22 00:37:56;;;;;;;6.03;5.53;;;15.20;99.90;;;;;;5030323;28;20392;-71
2023/05/22 00:40:25;;;;;;;5.20;4.65;;;15.20;99.90;;;;;;5029212;28;20203;-71
2023/05/22 00:42:52;;;;;;;4.88;4.47;;;15.20;99.90;;;;;;5026627;28;20211;-70
2023/05/22 00:45:19;;;;;;;5.78;4.43;;;15.30;99.90;;;;;;5028267;28;20223;-70
2023/05/22 00:47:46;;;;;;;4.38;3.97;;;15.40;99.90;;;;;;5025996;28;20218;-71
2023/05/22 00:50:13;;;;;;;4.65;4.32;;;15.50;99.90;;;;;;5022683;28;20210;-71
2023/05/22 00:52:43;;;;;;;4.18;3.88;;;15.60;99.90;;;;;;5025520;28;20199;-71
2023/05/22 00:55:11;;;;;;;4.50;4.20;;;15.60;99.90;;;;;;5026798;28;20588;-71
2023/05/22 00:57:41;;;;;;;5.25;4.85;;;15.70;99.90;;;;;;5024845;28;20577;-71
2023/05/22 01:00:10;;;;;;;4.88;4.50;;;15.60;99.90;;;;;;5032285;28;20713;-71
2023/05/22 01:02:38;;;;;;;4.97;4.57;;;15.50;99.90;;;;;;5026464;28;20200;-71
2023/05/22 01:05:06;;;;;;;4.75;4.43;;;15.40;99.90;;;;;;5026151;28;20215;-71
2023/05/22 01:07:36;;;;;;;4.78;4.38;;;15.30;99.90;;;;;;5027318;28;20315;-70
2023/05/22 01:10:04;;;;;;;5.28;4.88;;;15.30;99.90;;;;;;5024085;28;20214;-70
2023/05/22 01:12:38;;;;;;;4.97;4.57;;;15.30;99.90;;;;;;5029092;28;20206;-70
2023/05/22 01:15:17;;;;;;;4.63;4.22;;;15.30;99.90;;;;;;5027742;28;20218;-71
2023/05/22 01:17:52;;;;;;;4.30;4.00;;;15.30;99.90;;;;;;5025592;28;20403;-71
2023/05/22 01:20:27;;;;;;;5.00;4.60;;;15.40;99.90;;;;;;5024069;28;20210;-71
2023/05/22 01:23:34;;;;;;;4.30;4.00;;;15.30;99.90;;;;;;5029143;28;20231;-71
2023/05/22 01:26:23;;;;;;;5.10;4.20;;;15.20;99.90;;;;;;5006229;28;20685;-71
2023/05/22 01:29:12;;;;;;;4.53;4.13;;;15.20;99.90;;;;;;4996061;28;20236;-71
2023/05/22 01:31:43;;;;;;;4.50;4.15;;;15.20;99.90;;;;;;5023365;28;20203;-71
2023/05/22 01:34:13;;;;;;;4.55;4.18;;;15.20;99.90;;;;;;5026846;28;20203;-70
2023/05/22 01:36:41;;;;;;;4.68;4.30;;;15.20;99.90;;;;;;5031312;28;20282;-71
2023/05/22 01:39:09;;;;;;;5.38;4.65;;;15.20;99.90;;;;;;5025991;28;20199;-70
2023/05/22 01:41:37;;;;;;;5.30;4.85;;;15.20;99.90;;;;;;5027525;28;20250;-71
2023/05/22 01:44:04;;;;;;;5.32;4.93;;;15.10;99.90;;;;;;5019043;28;20499;-71
2023/05/22 01:46:31;;;;;;;4.93;4.53;;;15.10;99.90;;;;;;5029008;28;20234;-70
2023/05/22 01:49:00;;;;;;;5.55;5.05;;;15.10;99.90;;;;;;5028239;28;20238;-70
2023/05/22 01:51:37;;;;;;;5.03;4.63;;;15.10;99.90;;;;;;5027771;28;20232;-71
2023/05/22 01:54:16;;;;;;;4.85;4.45;;;15.10;99.90;;;;;;5045559;28;20223;-71
2023/05/22 01:56:53;;;;;;;4.88;4.47;;;15.10;99.90;;;;;;5046653;28;20194;-70
2023/05/22 01:59:29;;;;;;;5.35;4.90;;;15.10;99.90;;;;;;5044320;28;20266;-71
2023/05/22 02:01:58;;;;;;;4.65;4.35;;;15.00;99.90;;;;;;5040921;28;20199;-71
2023/05/22 02:04:29;;;;;;;4.70;4.40;;;15.00;99.90;;;;;;5041760;28;20222;-71
2023/05/22 02:06:59;;;;;;;5.25;4.78;;;15.00;99.90;;;;;;5041253;28;20215;-71
2023/05/22 02:09:29;;;;;;;4.57;4.28;;;15.10;99.90;;;;;;5037367;28;20204;-71
2023/05/22 02:11:57;;;;;;;5.15;4.75;;;15.00;99.90;;;;;;5035579;28;20227;-70
2023/05/22 02:14:25;;;;;;;4.68;4.38;;;15.00;99.90;;;;;;5026082;28;20736;-70
2023/05/22 02:16:52;;;;;;;4.55;4.22;;;15.00;99.90;;;;;;5028079;28;20286;-70
2023/05/22 02:19:19;;;;;;;4.68;4.28;;;14.90;99.90;;;;;;5022075;28;20330;-70
2023/05/22 02:21:48;;;;;;;4.32;3.95;;;15.00;99.90;;;;;;5027434;28;20198;-70
2023/05/22 02:24:15;;;;;;;5.18;4.78;;;15.00;99.90;;;;;;5027137;28;20242;-70
2023/05/22 02:26:42;;;;;;;5.22;4.82;;;15.00;99.90;;;;;;5027544;28;20289;-71
2023/05/22 02:29:09;;;;;;;4.88;4.47;;;15.10;99.90;;;;;;5028929;28;20195;-71
2023/05/22 02:31:36;;;;;;;4.90;4.60;;;15.00;99.90;;;;;;5019337;28;20733;-72
2023/05/22 02:34:04;;;;;;;5.10;4.70;;;15.00;99.90;;;;;;5027891;28;20261;-70
2023/05/22 02:36:31;;;;;;;5.32;4.93;;;15.10;99.90;;;;;;5024643;28;20195;-71
2023/05/22 02:38:59;;;;;;;4.97;4.57;;;15.00;99.90;;;;;;5024055;28;20492;-71
2023/05/22 02:41:26;;;;;;;5.07;4.68;;;15.10;99.90;;;;;;5029975;28;20710;-71
2023/05/22 02:43:53;;;;;;;4.72;4.43;;;15.10;99.90;;;;;;5028076;28;20196;-70
2023/05/22 02:46:20;;;;;;;4.70;4.30;;;15.10;99.90;;;;;;5024223;28;20297;-70
2023/05/22 02:48:47;;;;;;;4.60;4.30;;;15.10;99.90;;;;;;5023670;28;20935;-71
2023/05/22 02:51:14;;;;;;;4.47;4.18;;;15.10;99.90;;;;;;5028158;28;20239;-71
2023/05/22 02:53:41;;;;;;;4.60;4.30;;;15.10;99.90;;;;;;5029424;28;20253;-70
2023/05/22 02:56:10;;;;;;;4.90;4.50;;;15.10;99.90;;;;;;5024628;28;20320;-71
2023/05/22 02:58:37;;;;;;;5.03;4.63;;;15.10;99.90;;;;;;5028941;28;20214;-70
2023/05/22 03:01:07;;;;;;;5.03;4.63;;;15.00;99.90;;;;;;5021714;28;20295;-70
2023/05/22 03:03:34;;;;;;;4.80;4.40;;;15.00;99.90;;;;;;5027563;28;20241;-71
2023/05/22 03:06:02;;;;;;;4.50;4.10;;;15.00;99.90;;;;;;5025252;28;20258;-70
2023/05/22 03:08:30;;;;;;;4.43;4.13;;;15.10;99.90;;;;;;5028604;28;20575;-71
2023/05/22 03:10:58;;;;;;;5.10;4.70;;;15.00;99.90;;;;;;5027339;28;20565;-71
2023/05/22 03:13:26;;;;;;;4.65;4.25;;;15.00;99.90;;;;;;5028670;28;20208;-71
2023/05/22 03:15:53;;;;;;;5.47;5.07;;;15.00;99.90;;;;;;5022743;28;20223;-70
2023/05/22 03:18:21;;;;;;;4.65;4.25;;;14.90;99.90;;;;;;5031368;28;20309;-70
2023/05/22 03:20:48;;;;;;;4.43;4.13;;;14.90;99.90;;;;;;5025473;28;20204;-70
2023/05/22 03:23:15;;;;;;;4.88;4.47;;;14.80;99.90;;;;;;5028867;28;20290;-70
2023/05/22 03:25:42;;;;;;;4.00;3.70;;;14.90;99.90;;;;;;5026490;28;20223;-72
2023/05/22 03:28:09;;;;;;;4.47;4.13;;;14.90;99.90;;;;;;5025661;28;20231;-71
2023/05/22 03:30:38;;;;;;;4.55;4.25;;;14.90;99.90;;;;;;5022882;28;20458;-71
2023/05/22 03:33:04;;;;;;;4.88;4.47;;;15.00;99.90;;;;;;5030963;28;20290;-71
2023/05/22 03:35:31;;;;;;;5.75;4.28;;;14.90;99.90;;;;;;5027329;28;20702;-70
2023/05/22 03:37:58;;;;;;;4.15;3.85;;;14.90;99.90;;;;;;5023528;28;20199;-70
2023/05/22 03:40:25;;;;;;;4.40;4.10;;;15.00;99.90;;;;;;5019479;28;20211;-70
2023/05/22 03:42:52;;;;;;;4.38;4.07;;;15.00;99.90;;;;;;5027018;28;20200;-70
2023/05/22 03:45:19;;;;;;;4.35;4.00;;;15.00;99.90;;;;;;5025427;28;20783;-71
2023/05/22 03:47:47;;;;;;;4.68;4.35;;;15.00;99.90;;;;;;5030994;28;20495;-71
2023/05/22 03:50:14;;;;;;;4.20;3.90;;;15.00;99.90;;;;;;5026788;28;20199;-70
2023/05/22 03:52:41;;;;;;;4.65;4.30;;;15.00;99.90;;;;;;5029868;28;20203;-70
2023/05/22 03:55:09;;;;;;;4.47;4.13;;;15.00;99.90;;;;;;5034640;28;20219;-70
2023/05/22 03:57:36;;;;;;;4.32;4.03;;;15.00;99.90;;;;;;5029408;28;20226;-70
2023/05/22 04:00:08;;;;;;;4.10;3.80;;;15.00;99.90;;;;;;5027847;28;20204;-70
2023/05/22 04:02:37;;;;;;;4.53;4.22;;;15.00;99.90;;;;;;5027581;28;20207;-70
2023/05/22 04:05:09;;;;;;;4.50;4.20;;;15.00;99.90;;;;;;5029825;28;22430;-71
2023/05/22 04:07:36;;;;;;;3.80;3.50;;;15.00;99.90;;;;;;5030645;28;20409;-70
2023/05/22 04:10:03;;;;;;;4.03;3.72;;;15.00;99.90;;;;;;5028815;28;20223;-70
2023/05/22 04:12:30;;;;;;;4.10;3.80;;;14.90;99.90;;;;;;5027912;28;20287;-71
2023/05/22 04:14:57;;;;;;;4.20;3.90;;;14.90;99.90;;;;;;5029370;28;20258;-70
2023/05/22 04:17:26;;;;;;;4.10;3.80;;;14.90;99.90;;;;;;5028215;28;20367;-70
2023/05/22 04:19:53;;;;;;;4.53;4.13;;;14.90;99.90;;;;;;5025802;28;20676;-70
2023/05/22 04:22:21;;;;;;;4.10;3.80;;;14.90;99.90;;;;;;5027173;28;20294;-70
2023/05/22 04:24:48;;;;;;;4.32;4.03;;;14.90;99.90;;;;;;5027464;28;20234;-70
2023/05/22 04:27:16;;;;;;;4.47;4.18;;;14.90;99.90;;;;;;5024528;28;20286;-71
2023/05/22 04:29:43;;;;;;;4.40;4.10;;;14.80;99.90;;;;;;5024836;28;20261;-71
2023/05/22 04:32:10;;;;;;;4.60;4.30;;;14.80;99.90;;;;;;5025623;28;20200;-70
2023/05/22 04:34:38;;;;;;;4.30;4.00;;;14.80;99.90;;;;;;5028952;28;20331;-70
2023/05/22 04:37:05;;;;;;;4.30;4.00;;;14.80;99.90;;;;;;5028172;28;20231;-71
2023/05/22 04:39:34;;;;;;;4.43;4.13;;;14.90;99.90;;;;;;5027247;28;20212;-71
2023/05/22 04:42:04;;;;;;;4.60;4.20;;;14.90;99.90;;;;;;5028332;28;20210;-71
2023/05/22 04:44:33;;;;;;;4.40;4.10;;;14.90;99.90;;;;;;5027435;28;20604;-70
2023/05/22 04:47:00;;;;;;;4.40;4.10;;;14.90;99.90;;;;;;5028440;28;20277;-71
2023/05/22 04:49:28;;;;;;;5.15;4.72;;;14.90;99.90;;;;;;5024030;28;20196;-71
2023/05/22 04:51:56;;;;;;;4.90;4.50;;;14.90;99.90;;;;;;5027426;28;20204;-70
2023/05/22 04:54:23;;;;;;;4.68;4.28;;;15.00;99.90;;;;;;5030528;28;20281;-70
2023/05/22 04:56:51;;;;;;;4.03;3.72;;;15.10;99.90;;;;;;5027814;28;20278;-71
2023/05/22 04:59:22;;;;;;;4.53;4.22;;;15.30;99.90;;;;;;5027988;28;20262;-70
2023/05/22 05:01:49;;;;;;;4.53;4.20;;;15.40;99.90;;;;;;5029269;28;20208;-71
2023/05/22 05:04:16;;;;;;;4.10;3.80;;;15.40;99.90;;;;;;5027730;28;20325;-71
2023/05/22 05:06:43;;;;;;;4.10;3.80;;;15.60;99.90;;;;;;5026934;28;20235;-70
2023/05/22 05:09:10;;;;;;;4.28;3.97;;;15.80;99.90;;;;;;5029328;28;20203;-70
2023/05/22 05:11:37;;;;;;;4.80;4.40;;;16.00;99.90;;;;;;5029002;28;20272;-71
2023/05/22 05:14:06;;;;;;;4.70;4.40;;;16.20;99.90;;;;;;5024680;28;23479;-70
2023/05/22 05:16:33;;;;;;;4.30;4.00;;;16.30;99.90;;;;;;5028222;28;20235;-70
2023/05/22 05:19:00;;;;;;;5.30;4.32;;;16.30;99.90;;;;;;5031541;28;20235;-71
2023/05/22 05:21:27;;;;;;;4.95;4.55;;;16.40;99.90;;;;;;5027201;28;20276;-71
2023/05/22 05:23:54;;;;;;;7.50;5.18;;;16.30;99.90;;;;;;5022637;28;20568;-71
2023/05/22 05:26:22;;;;;;;5.68;5.18;;;16.30;99.90;;;;;;5024273;28;20925;-70
2023/05/22 05:28:50;;;;;;;4.90;4.50;;;16.20;99.90;;;;;;5025915;28;20721;-71
2023/05/22 05:31:19;;;;;;;4.85;4.45;;;16.30;99.90;;;;;;5022742;28;20207;-70
2023/05/22 05:33:46;;;;;;;5.68;5.28;;;16.50;99.90;;;;;;5023542;28;20282;-70
2023/05/22 05:36:13;;;;;;;9.27;4.70;;;16.70;99.90;;;;;;5024022;28;20220;-70
2023/05/22 05:38:40;;;;;;;5.10;4.70;;;17.00;99.90;;;;;;5023961;28;20246;-70
2023/05/22 05:41:07;;;;;;;5.60;5.10;;;17.20;99.90;;;;;;5029898;28;20306;-70
2023/05/22 05:43:33;;;;;;;6.10;5.60;;;17.40;99.90;;;;;;5031665;28;20242;-70
2023/05/22 05:46:01;;;;;;;6.25;5.75;;;17.50;99.90;;;;;;5028440;28;20215;-71
2023/05/22 05:48:29;;;;;;;6.63;6.13;;;17.50;99.90;;;;;;5025101;28;20276;-70
2023/05/22 05:50:56;;;;;;;6.93;6.32;;;17.50;99.90;;;;;;5025259;28;20199;-71
2023/05/22 05:53:23;;;;;;;6.18;5.65;;;17.50;99.90;;;;;;5031796;28;20206;-71
2023/05/22 05:55:50;;;;;;;6.38;5.88;;;17.60;99.90;;;;;;5028032;28;20261;-71
2023/05/22 05:58:17;;;;;;;6.10;5.60;;;17.70;99.90;;;;;;5029611;28;20205;-71
2023/05/22 06:00:44;;;;;;;6.65;6.05;;;17.80;99.90;;;;;;5029662;28;20222;-71
2023/05/22 06:03:11;;;;;;;5.78;5.35;;;18.00;99.90;;;;;;5029739;28;20211;-71
2023/05/22 06:05:39;;;;;;;6.97;6.38;;;18.20;99.90;;;;;;5025069;28;20322;-71
2023/05/22 06:08:07;;;;;;;6.55;6.05;;;18.40;99.90;;;;;;5030687;28;20785;-71
2023/05/22 06:10:34;;;;;;;6.70;6.10;;;18.50;99.90;;;;;;5031590;28;20219;-72
2023/05/22 06:13:01;;;;;;;7.32;6.60;;;18.60;99.90;;;;;;5034409;28;20212;-71
2023/05/22 06:15:29;;;;;;;6.95;6.35;;;18.60;99.90;;;;;;5038593;28;20308;-71
2023/05/22 06:17:56;;;;;;;6.05;5.55;;;18.60;99.90;;;;;;5031269;28;20290;-71
2023/05/22 06:20:24;;;;;;;5.90;5.40;;;18.70;99.90;;;;;;5020878;28;20195;-71
2023/05/22 06:22:52;;;;;;;5.88;5.38;;;18.80;99.90;;;;;;5025086;28;20202;-71
2023/05/22 06:25:19;;;;;;;5.93;5.28;;;19.00;99.90;;;;;;5025311;28;20227;-72
2023/05/22 06:27:46;;;;;;;6.88;6.15;;;19.10;99.90;;;;;;5016458;28;20247;-71
2023/05/22 06:30:14;;;;;;;6.45;5.85;;;19.00;99.90;;;;;;5016929;28;20744;-71
2023/05/22 06:32:41;;;;;;;7.57;6.10;;;19.10;99.90;;;;;;5018962;28;20491;-70
2023/05/22 06:35:09;;;;;;;6.43;5.82;;;19.00;99.90;;;;;;5024685;28;20805;-70
2023/05/22 06:37:37;;;;;;;6.43;5.82;;;19.10;99.90;;;;;;5027215;28;20685;-71
2023/05/22 06:40:07;;;;;;;7.13;6.22;;;19.10;99.90;;;;;;5023775;28;20839;-70
2023/05/22 06:42:34;;;;;;;6.00;5.45;;;19.20;99.90;;;;;;5026235;28;20211;-71
2023/05/22 06:45:01;;;;;;;6.35;5.82;;;19.20;99.90;;;;;;5024757;28;20242;-71
2023/05/22 06:47:28;;;;;;;6.15;5.55;;;19.30;99.90;;;;;;5023092;28;20638;-72
2023/05/22 06:49:55;;;;;;;6.60;6.05;;;19.40;99.90;;;;;;5024609;28;20282;-71
2023/05/22 06:52:22;;;;;;;7.60;5.50;;;19.50;99.90;;;;;;5024046;28;20573;-71
2023/05/22 06:54:49;;;;;;;6.78;5.93;;;19.60;99.90;;;;;;5024425;28;20228;-71
2023/05/22 06:57:17;;;;;;;6.85;6.20;;;19.70;99.90;;;;;;5022338;28;20219;-71
2023/05/22 06:59:44;;;;;;;6.25;5.65;;;19.80;99.90;;;;;;5024937;28;20234;-71
2023/05/22 07:02:11;;;;;;;6.05;5.55;;;19.80;99.90;;;;;;5025005;28;20226;-71
2023/05/22 07:04:38;;;;;;;6.22;5.72;;;19.70;99.90;;;;;;5025197;28;20250;-71
2023/05/22 07:07:05;;;;;;;6.97;6.38;;;19.70;99.90;;;;;;5018496;28;20286;-72
2023/05/22 07:09:33;;;;;;;5.95;5.35;;;19.80;99.90;;;;;;5023708;28;20769;-71
2023/05/22 07:12:00;;;;;;;8.93;5.30;;;19.90;99.90;;;;;;5021181;28;20277;-71
2023/05/22 07:14:28;;;;;;;6.45;5.85;;;20.00;99.90;;;;;;5019897;28;20302;-71
2023/05/22 07:16:55;;;;;;;6.53;6.03;;;20.20;99.90;;;;;;5019403;28;20253;-73
2023/05/22 07:19:22;;;;;;;6.05;5.50;;;20.30;99.90;;;;;;5021673;28;20680;-71
2023/05/22 07:21:49;;;;;;;5.95;5.32;;;20.40;99.90;;;;;;5025693;28;20208;-72
2023/05/22 07:24:16;;;;;;;5.43;4.93;;;20.50;99.90;;;;;;5018289;28;20406;-71
2023/05/22 07:26:45;;;;;;;6.75;5.63;;;20.60;99.90;;;;;;5022462;28;20464;-72
2023/05/22 07:29:12;;;;;;;5.85;5.22;;;20.80;99.90;;;;;;5023419;28;20212;-71
2023/05/22 07:31:41;;;;;;;5.70;5.20;;;20.80;99.90;;;;;;5022929;28;20203;-72
2023/05/22 07:34:08;;;;;;;6.20;5.68;;;20.80;99.90;;;;;;5025430;28;20214;-73
2023/05/22 07:36:35;;;;;;;5.85;5.35;;;20.90;99.90;;;;;;5027029;28;20203;-71
2023/05/22 07:39:03;;;;;;;6.05;5.55;;;20.90;99.90;;;;;;5020018;28;20227;-72
2023/05/22 07:41:30;;;;;;;6.30;5.80;;;21.00;99.90;;;;;;5027074;28;20261;-72
2023/05/22 07:43:57;;;;;;;6.15;5.55;;;21.10;99.90;;;;;;5030785;28;20290;-73
2023/05/22 07:46:25;;;;;;;6.40;5.90;;;21.10;99.90;;;;;;5024551;28;20199;-72
2023/05/22 07:48:54;;;;;;;7.55;6.15;;;21.10;99.90;;;;;;5024312;28;20208;-72
2023/05/22 07:51:21;;;;;;;5.93;5.43;;;21.10;99.90;;;;;;5027734;28;20210;-72
2023/05/22 07:53:48;;;;;;;7.45;5.80;;;21.20;99.90;;;;;;5029335;28;20231;-72
2023/05/22 07:56:16;;;;;;;6.88;6.28;;;21.30;99.90;;;;;;5028678;28;20246;-72
2023/05/22 07:58:46;;;;;;;6.35;5.75;;;21.30;99.90;;;;;;5028946;28;20624;-72
2023/05/22 08:01:14;;;;;;;5.80;5.30;;;21.40;99.90;;;;;;5025944;28;20265;-72
2023/05/22 08:03:41;;;;;;;6.35;5.75;;;21.50;99.90;;;;;;5025465;28;20196;-73
2023/05/22 08:06:10;;;;;;;6.93;6.35;;;21.60;99.90;;;;;;5024245;28;20227;-72
2023/05/22 08:08:36;;;;;;;6.97;6.28;;;21.60;99.90;;;;;;5025578;28;20285;-73
2023/05/22 08:11:04;;;;;;;6.20;5.32;;;21.60;99.90;;;;;;5025252;28;20720;-73
2023/05/22 08:13:31;;;;;;;6.50;5.85;;;21.70;99.90;;;;;;5018675;28;20679;-72
2023/05/22 08:15:58;;;;;;;7.63;6.38;;;21.80;99.90;;;;;;5026880;28;20223;-73
2023/05/22 08:18:26;;;;;;;5.85;5.35;;;22.00;99.90;;;;;;5020046;28;20249;-72
2023/05/22 08:20:53;;;;;;;7.45;6.57;;;22.10;99.90;;;;;;5020029;28;20206;-72
2023/05/22 08:23:22;;;;;;;6.03;5.43;;;22.00;99.90;;;;;;5024797;28;20311;-72
2023/05/22 08:25:49;;;;;;;6.10;5.60;;;22.10;99.90;;;;;;5023697;28;20305;-72
2023/05/22 08:28:16;;;;;;;9.90;5.40;;;22.30;99.90;;;;;;5026243;28;20227;-76
2023/05/22 08:30:43;;;;;;;6.05;5.55;;;22.40;99.90;;;;;;5019268;28;20265;-72
2023/05/22 08:33:10;;;;;;;7.35;5.72;;;22.70;99.90;;;;;;5025017;28;20196;-72
2023/05/22 08:35:37;;;;;;;5.78;5.28;;;22.80;99.90;;;;;;5028294;28;20219;-74
2023/05/22 08:38:04;;;;;;;5.90;5.30;;;23.00;99.90;;;;;;5025348;28;20195;-74
2023/05/22 08:40:36;;;;;;;6.18;5.60;;;23.20;99.90;;;;;;5024561;28;20219;-73
2023/05/22 08:43:04;;;;;;;5.90;5.40;;;23.50;99.90;;;;;;5027595;28;20389;-73
2023/05/22 08:45:32;;;;;;;7.00;5.68;;;23.80;99.90;;;;;;5027800;28;20534;-74
2023/05/22 08:48:03;;;;;;;5.93;5.47;;;23.80;99.90;;;;;;5027657;28;20210;-74
2023/05/22 08:50:30;;;;;;;6.45;4.90;;;23.60;99.90;;;;;;5020543;28;20283;-73
2023/05/22 08:53:01;;;;;;;5.68;5.18;;;23.50;99.90;;;;;;5028360;28;20221;-73
2023/05/22 08:55:29;;;;;;;6.60;6.00;;;23.50;99.90;;;;;;5027260;28;20223;-73
2023/05/22 08:57:57;;;;;;;5.47;5.05;;;23.60;99.90;;;;;;5022614;28;20227;-73
2023/05/22 09:00:24;;;;;;;5.80;5.30;;;23.60;99.90;;;;;;5018358;28;20481;-73
2023/05/22 09:02:54;;;;;;;7.75;5.28;;;23.50;99.90;;;;;;5020225;28;20255;-72
2023/05/22 09:05:25;;;;;;;5.88;5.38;;;23.60;99.90;;;;;;5022547;28;20899;-72
2023/05/22 09:07:52;;;;;;;5.88;5.30;;;23.70;99.90;;;;;;5020026;28;20400;-73
2023/05/22 09:10:19;;;;;;;6.20;5.70;;;23.90;99.90;;;;;;5017381;28;20195;-75
2023/05/22 09:13:04;;;;;;;5.95;5.40;;;24.00;99.90;;;;;;5015399;28;20301;-73
2023/05/22 09:15:32;;;;;;;5.70;5.20;;;24.10;99.90;;;;;;5018842;28;20704;-73
2023/05/22 09:18:00;;;;;;;5.78;5.28;;;24.10;99.90;;;;;;5021415;28;20234;-73
2023/05/22 09:20:29;;;;;;;5.68;5.18;;;24.20;99.90;;;;;;5018629;28;20350;-73
2023/05/22 09:22:56;;;;;;;6.25;5.65;;;24.30;99.90;;;;;;5016460;28;20208;-73
2023/05/22 09:25:25;;;;;;;6.40;5.80;;;24.30;99.90;;;;;;5017730;28;20226;-73
2023/05/22 09:27:55;;;;;;;6.75;6.15;;;24.30;99.90;;;;;;5021608;28;20591;-75
2023/05/22 09:30:24;;;;;;;7.07;5.68;;;24.40;99.90;;;;;;5020261;28;22689;-74
2023/05/22 09:32:51;;;;;;;6.10;5.50;;;24.50;99.90;;;;;;5017202;28;20265;-73
2023/05/22 09:35:19;;;;;;;6.20;5.60;;;24.70;99.90;;;;;;5019747;28;20223;-73
2023/05/22 09:37:46;;;;;;;6.57;5.97;;;24.70;99.90;;;;;;5018268;28;20210;-72
2023/05/22 09:40:13;;;;;;;5.47;4.97;;;24.60;99.90;;;;;;5018728;28;20294;-76
2023/05/22 09:42:44;;;;;;;6.10;5.50;;;24.50;99.90;;;;;;5015774;28;20289;-74
2023/05/22 09:45:12;;;;;;;5.25;4.85;;;24.70;99.90;;;;;;5019467;28;20230;-73
2023/05/22 09:47:48;;;;;;;6.05;5.55;;;24.80;99.90;;;;;;5019485;28;20211;-75
2023/05/22 09:50:15;;;;;;;5.40;5.00;;;25.00;99.90;;;;;;5014579;28;20341;-75
2023/05/22 09:52:45;;;;;;;5.65;5.10;;;25.00;99.90;;;;;;5021853;28;20227;-74
2023/05/22 09:55:13;;;;;;;5.13;4.72;;;24.90;99.90;;;;;;5021367;28;20524;-75
2023/05/22 09:57:43;;;;;;;5.07;4.63;;;25.00;99.90;;;;;;5017635;28;20282;-76
2023/05/22 10:00:14;;;;;;;5.18;4.78;;;25.20;99.90;;;;;;5015610;28;20200;-77
2023/05/22 10:02:45;;;;;;;5.28;4.88;;;25.50;99.90;;;;;;5018763;28;20392;-75
2023/05/22 10:05:19;;;;;;;5.20;4.80;;;25.90;99.90;;;;;;5018712;28;20219;-76
2023/05/22 10:07:49;;;;;;;6.20;5.65;;;26.10;99.90;;;;;;5017854;28;20692;-76
2023/05/22 10:10:18;;;;;;;5.07;4.57;;;26.00;99.90;;;;;;5014857;28;20231;-75
2023/05/22 10:12:51;;;;;;;5.45;4.95;;;26.00;99.90;;;;;;5019400;28;20421;-76
2023/05/22 10:15:18;;;;;;;5.65;5.20;;;26.10;99.90;;;;;;5014386;28;20228;-75
2023/05/22 10:17:48;;;;;;;5.63;5.20;;;25.90;99.90;;;;;;5023527;28;20290;-75
2023/05/22 10:20:16;;;;;;;5.85;5.25;;;25.80;99.90;;;;;;5017099;28;20269;-75
2023/05/22 10:22:43;;;;;;;6.53;5.10;;;25.70;99.90;;;;;;5017856;28;20259;-74
2023/05/22 10:25:11;;;;;;;5.57;4.80;;;25.60;99.90;;;;;;5016280;28;20219;-74
2023/05/22 10:27:38;;;;;;;5.53;5.00;;;25.50;99.90;;;;;;5021034;28;20206;-75
2023/05/22 10:30:22;;;;;;;4.63;4.22;;;25.50;99.90;;;;;;5019187;28;20227;-75
2023/05/22 10:32:57;;;;;;;4.85;4.18;;;25.80;99.90;;;;;;5020169;28;20195;-74
2023/05/22 10:35:29;;;;;;;4.95;4.55;;;26.00;99.90;;;;;;5022566;28;20831;-73
2023/05/22 10:38:10;;;;;;;4.25;3.90;;;26.10;99.90;;;;;;5027128;28;20243;-73
2023/05/22 10:40:38;;;;;;;4.85;4.45;;;26.40;99.90;;;;;;5020601;28;20207;-76
2023/05/22 10:43:05;;;;;;;4.72;4.32;;;26.60;99.90;;;;;;5026880;28;20685;-82
2023/05/22 10:45:32;;;;;;;4.32;4.03;;;26.60;99.90;;;;;;5027231;28;20216;-75
2023/05/22 10:48:05;;;;;;;4.40;4.10;;;26.90;99.90;;;;;;5021193;28;20211;-76
2023/05/22 10:50:33;;;;;;;4.40;4.10;;;27.00;99.90;;;;;;5023350;28;20305;-77
2023/05/22 10:53:20;;;;;;;5.00;4.60;;;27.00;99.90;;;;;;5029075;28;20204;-77
2023/05/22 10:55:49;;;;;;;4.45;4.05;;;26.90;99.90;;;;;;5029681;28;20215;-77
2023/05/22 10:58:16;;;;;;;4.22;3.83;;;26.70;99.90;;;;;;5017705;28;20693;-77
2023/05/22 11:00:43;;;;;;;4.72;4.32;;;27.10;99.90;;;;;;5011007;28;20654;-76
2023/05/22 11:03:11;;;;;;;4.88;4.47;;;27.10;99.90;;;;;;5021151;28;20204;-77
2023/05/22 11:05:39;;;;;;;4.53;4.13;;;27.00;99.90;;;;;;5021844;28;20223;-77
2023/05/22 11:08:39;;;;;;;4.30;3.90;;;27.30;99.90;;;;;;5020088;28;20601;-77
2023/05/22 11:11:15;;;;;;;4.38;3.90;;;27.60;99.90;;;;;;5018641;28;20427;-78
2023/05/22 11:13:42;;;;;;;4.00;3.70;;;27.60;99.90;;;;;;5022436;28;20690;-75
2023/05/22 11:16:11;;;;;;;4.13;3.83;;;27.70;99.90;;;;;;5011195;28;20318;-77
2023/05/22 11:18:39;;;;;;;4.43;4.13;;;27.60;99.90;;;;;;5017263;28;20203;-77
2023/05/22 11:21:10;;;;;;;6.30;4.05;;;27.50;99.90;;;;;;5023711;28;20713;-80
2023/05/22 11:23:37;;;;;;;5.25;3.80;;;27.40;99.90;;;;;;5018109;28;20202;-74
2023/05/22 11:26:22;;;;;;;4.07;3.78;;;27.00;99.90;;;;;;5020033;28;20320;-74
2023/05/22 11:28:52;;;;;;;5.20;4.45;;;26.70;99.90;;;;;;5021032;28;20298;-75
2023/05/22 11:31:21;;;;;;;4.45;3.67;;;26.80;99.90;;;;;;5023635;28;20238;-75
2023/05/22 11:33:50;;;;;;;4.15;3.85;;;26.80;99.90;;;;;;5020382;28;20233;-76
2023/05/22 11:36:17;;;;;;;6.85;4.30;;;27.30;99.90;;;;;;5022767;28;20713;-76
2023/05/22 11:38:45;;;;;;;4.38;3.65;;;27.60;99.90;;;;;;5023187;28;20335;-76
2023/05/22 11:41:12;;;;;;;4.00;3.70;;;27.80;99.90;;;;;;5023391;28;20291;-75
2023/05/22 11:43:41;;;;;;;4.45;3.90;;;27.80;99.90;;;;;;5025525;28;20283;-76
2023/05/22 11:46:10;;;;;;;3.97;3.67;;;27.70;99.90;;;;;;5020591;28;20311;-76
2023/05/22 11:48:40;;;;;;;4.28;3.90;;;27.40;99.90;;;;;;5024238;28;20207;-75
2023/05/22 11:51:09;;;;;;;4.35;3.95;;;27.20;99.90;;;;;;5025406;28;20310;-76
2023/05/22 11:53:37;;;;;;;4.20;3.83;;;27.50;99.90;;;;;;5020143;28;20199;-77
2023/05/22 11:56:05;;;;;;;4.47;4.10;;;27.60;99.90;;;;;;5022448;28;20235;-77
2023/05/22 11:58:33;;;;;;;4.00;3.65;;;27.50;99.90;;;;;;5021270;28;20200;-76
2023/05/22 12:01:04;;;;;;;3.60;3.30;;;27.50;99.90;;;;;;5016398;28;20449;-77
2023/05/22 12:03:32;;;;;;;4.15;3.47;;;27.60;99.90;;;;;;5018721;28;20235;-77
2023/05/22 12:06:01;;;;;;;4.10;3.78;;;28.00;99.90;;;;;;5017983;28;20791;-78
2023/05/22 12:08:29;;;;;;;4.00;3.70;;;28.40;99.90;;;;;;5019078;28;20249;-79
2023/05/22 12:10:56;;;;;;;4.10;3.80;;;28.60;99.90;;;;;;5020789;28;20229;-78
2023/05/22 12:13:28;;;;;;;3.83;3.53;;;28.30;99.90;;;;;;5019072;28;20286;-78
2023/05/22 12:15:59;;;;;;;4.53;3.33;;;27.80;99.90;;;;;;5021893;28;20309;-75
2023/05/22 12:18:27;;;;;;;4.43;3.80;;;27.40;99.90;;;;;;5023407;28;20865;-77
2023/05/22 12:20:55;;;;;;;4.50;3.90;;;27.10;99.90;;;;;;5020880;28;20737;-80
2023/05/22 12:23:23;;;;;;;5.20;4.07;;;27.10;99.90;;;;;;5024754;28;20272;-82
2023/05/22 12:25:59;;;;;;;6.75;3.85;;;27.40;99.90;;;;;;5017917;28;20255;-79
2023/05/22 12:28:26;;;;;;;4.65;3.63;;;27.50;99.90;;;;;;5027262;28;20321;-78
2023/05/22 12:30:54;;;;;;;4.03;3.63;;;27.10;99.90;;;;;;5015157;28;20363;-81
2023/05/22 12:33:26;;;;;;;4.10;3.80;;;27.10;99.90;;;;;;5020779;28;20279;-80
2023/05/22 12:35:53;;;;;;;4.32;3.90;;;27.40;99.90;;;;;;5023773;28;20714;-78
2023/05/22 12:38:25;;;;;;;5.03;3.92;;;27.60;99.90;;;;;;5023911;28;20200;-84
2023/05/22 12:40:52;;;;;;;4.72;3.92;;;27.60;99.90;;;;;;5020877;28;20984;-78
2023/05/22 12:43:21;;;;;;;8.43;4.00;;;27.60;99.90;;;;;;5022477;28;20706;-78
2023/05/22 12:45:48;;;;;;;4.22;3.88;;;27.60;99.90;;;;;;5020291;28;20749;-78
2023/05/22 12:48:15;;;;;;;4.78;3.83;;;27.70;99.90;;;;;;5022017;28;20209;-84
2023/05/22 12:50:42;;;;;;;4.55;4.07;;;27.80;99.90;;;;;;5028570;28;20300;-82
2023/05/22 12:53:09;;;;;;;5.45;3.92;;;27.90;99.90;;;;;;5023097;28;20231;-83
2023/05/22 12:55:36;;;;;;;4.50;3.80;;;28.00;99.90;;;;;;5024625;28;20491;-80